Time;durP1;ratioP1;P1;durP2;ratioP2;P2;SDS_P1;SDS_P2;PMS_P1;PMS_P2;Temp;Humidity;BMP_temperature;BMP_pressure;BME280_temperature;BME280_humidity;BME280_pressure;Samples;Min_cycle;Max_cycle;Signal;HPM_P1;HPM_P2
2021/10/04 00:01:10;;;;;;;21.20;20.10;;;16.00;85.50;;;;;;5072488;28;20480;-71
2021/10/04 00:03:37;;;;;;;22.70;21.20;;;16.00;85.40;;;;;;5069725;28;20450;-71
2021/10/04 00:06:04;;;;;;;21.20;20.10;;;16.00;86.00;;;;;;5069322;28;20934;-71
2021/10/04 00:08:32;;;;;;;21.70;20.60;;;16.00;87.20;;;;;;5069732;28;20572;-71
2021/10/04 00:11:00;;;;;;;20.93;19.87;;;15.90;88.10;;;;;;5069304;28;20476;-71
2021/10/04 00:13:27;;;;;;;21.10;20.03;;;15.90;88.50;;;;;;5079322;28;20471;-71
2021/10/04 00:15:54;;;;;;;21.57;20.47;;;15.90;88.60;;;;;;5071916;28;20977;-71
2021/10/04 00:18:21;;;;;;;20.90;19.80;;;15.80;88.90;;;;;;5074388;28;20450;-71
2021/10/04 00:20:48;;;;;;;20.80;19.70;;;15.80;89.10;;;;;;5072776;28;20473;-71
2021/10/04 00:23:15;;;;;;;21.10;20.10;;;15.70;89.40;;;;;;5079435;28;20456;-71
2021/10/04 00:25:44;;;;;;;21.00;20.00;;;15.70;89.40;;;;;;5077764;28;20468;-71
2021/10/04 00:28:10;;;;;;;21.47;20.13;;;15.60;89.40;;;;;;5068254;28;20840;-71
2021/10/04 00:30:37;;;;;;;20.93;19.73;;;15.60;89.50;;;;;;5069992;28;20470;-71
2021/10/04 00:33:04;;;;;;;21.50;20.40;;;15.60;89.50;;;;;;5081581;28;20442;-71
2021/10/04 00:35:32;;;;;;;21.33;20.23;;;15.60;89.60;;;;;;5081654;28;20460;-71
2021/10/04 00:37:59;;;;;;;21.00;19.90;;;15.60;89.50;;;;;;5081378;28;20544;-71
2021/10/04 00:40:28;;;;;;;21.73;20.53;;;15.60;89.90;;;;;;5072472;28;20477;-71
2021/10/04 00:42:57;;;;;;;21.40;20.30;;;15.70;89.80;;;;;;5073821;28;20536;-72
2021/10/04 00:45:24;;;;;;;21.50;20.30;;;15.60;89.90;;;;;;5074573;28;21110;-71
2021/10/04 00:47:51;;;;;;;21.30;20.30;;;15.60;89.50;;;;;;5074308;28;20537;-70
2021/10/04 00:50:19;;;;;;;21.27;20.17;;;15.60;87.20;;;;;;5075485;28;20484;-71
2021/10/04 00:52:47;;;;;;;21.60;20.50;;;15.60;84.80;;;;;;5071695;28;20450;-71
2021/10/04 00:55:14;;;;;;;21.97;20.77;;;15.70;84.70;;;;;;5071185;28;20463;-71
2021/10/04 00:57:42;;;;;;;21.50;20.40;;;15.60;84.70;;;;;;5073345;28;20458;-71
2021/10/04 01:00:14;;;;;;;21.70;20.60;;;15.50;86.50;;;;;;5077479;28;20476;-71
2021/10/04 01:02:41;;;;;;;21.73;20.63;;;15.60;85.40;;;;;;5081350;28;20459;-70
2021/10/04 01:05:10;;;;;;;21.90;20.80;;;15.50;85.20;;;;;;5074615;28;20457;-71
2021/10/04 01:07:37;;;;;;;21.73;20.53;;;15.40;85.40;;;;;;5074623;28;20454;-71
2021/10/04 01:10:05;;;;;;;21.30;20.20;;;15.40;85.70;;;;;;5075162;28;20480;-71
2021/10/04 01:12:31;;;;;;;22.20;21.10;;;15.50;85.00;;;;;;5080605;28;20461;-71
2021/10/04 01:14:59;;;;;;;22.20;21.10;;;15.50;84.70;;;;;;5077796;28;20453;-71
2021/10/04 01:17:27;;;;;;;22.33;21.10;;;15.60;84.60;;;;;;5075153;28;20556;-71
2021/10/04 01:19:54;;;;;;;23.10;21.80;;;15.50;84.60;;;;;;5078054;28;20472;-71
2021/10/04 01:22:22;;;;;;;22.50;21.30;;;15.40;86.30;;;;;;5074195;28;20469;-72
2021/10/04 01:24:49;;;;;;;21.73;20.63;;;15.40;87.80;;;;;;5075608;28;20461;-72
2021/10/04 01:27:16;;;;;;;22.23;21.03;;;15.40;86.40;;;;;;5068763;28;20462;-72
2021/10/04 01:29:43;;;;;;;22.83;21.63;;;15.40;86.60;;;;;;5076472;28;20473;-72
2021/10/04 01:32:10;;;;;;;22.17;20.97;;;15.40;87.00;;;;;;5078607;28;20458;-72
2021/10/04 01:34:37;;;;;;;22.63;21.43;;;15.40;87.30;;;;;;5078169;28;20458;-72
2021/10/04 01:37:04;;;;;;;25.07;23.67;;;15.40;88.10;;;;;;5079770;28;20464;-72
2021/10/04 01:39:32;;;;;;;22.73;21.37;;;15.40;88.90;;;;;;5080591;28;20976;-72
2021/10/04 01:41:59;;;;;;;22.00;20.90;;;15.40;89.00;;;;;;5081494;28;20973;-72
2021/10/04 01:44:26;;;;;;;22.07;20.87;;;15.40;89.50;;;;;;5076178;28;20940;-72
2021/10/04 01:46:53;;;;;;;22.17;21.03;;;15.40;89.50;;;;;;5067158;28;20462;-72
2021/10/04 01:49:20;;;;;;;21.67;20.57;;;15.40;89.60;;;;;;5074077;28;20476;-72
2021/10/04 01:51:46;;;;;;;21.23;20.13;;;15.30;89.50;;;;;;5076294;28;20841;-72
2021/10/04 01:54:13;;;;;;;21.60;20.50;;;15.40;88.70;;;;;;5078880;28;20455;-72
2021/10/04 01:56:42;;;;;;;22.60;21.40;;;15.30;88.30;;;;;;5077291;28;20462;-74
2021/10/04 01:59:08;;;;;;;22.50;21.40;;;15.50;88.30;;;;;;5067864;28;20967;-74
2021/10/04 02:01:35;;;;;;;22.80;21.60;;;15.40;85.30;;;;;;5072651;28;20469;-72
2021/10/04 02:04:02;;;;;;;23.00;21.80;;;15.30;84.20;;;;;;5076234;28;20453;-74
2021/10/04 02:06:29;;;;;;;23.40;22.20;;;15.30;83.40;;;;;;5069062;28;20656;-74
2021/10/04 02:08:56;;;;;;;23.07;21.97;;;15.30;83.20;;;;;;5076535;28;20485;-74
2021/10/04 02:11:23;;;;;;;23.73;22.43;;;15.10;83.20;;;;;;5073202;28;20477;-74
2021/10/04 02:13:51;;;;;;;22.80;21.50;;;15.00;83.70;;;;;;5071718;28;20563;-74
2021/10/04 02:16:18;;;;;;;23.07;21.87;;;15.00;83.90;;;;;;5069280;28;20986;-74
2021/10/04 02:18:45;;;;;;;23.10;21.80;;;14.80;85.00;;;;;;5077395;28;20454;-74
2021/10/04 02:21:12;;;;;;;23.20;22.00;;;14.80;85.40;;;;;;5069930;28;20478;-74
2021/10/04 02:23:39;;;;;;;22.80;21.60;;;14.80;85.70;;;;;;5077812;28;20484;-74
2021/10/04 02:26:06;;;;;;;22.80;21.60;;;14.80;86.00;;;;;;5069748;28;20470;-74
2021/10/04 02:28:33;;;;;;;22.60;21.40;;;14.80;85.10;;;;;;5078882;28;20449;-74
2021/10/04 02:31:03;;;;;;;22.83;21.63;;;14.80;85.50;;;;;;5078313;28;20473;-74
2021/10/04 02:33:30;;;;;;;22.90;21.70;;;14.80;85.60;;;;;;5086056;28;20445;-74
2021/10/04 02:35:57;;;;;;;23.90;22.70;;;14.80;85.10;;;;;;5078860;28;20468;-73
2021/10/04 02:38:24;;;;;;;24.50;23.00;;;14.80;85.40;;;;;;5073308;28;20446;-71
2021/10/04 02:40:51;;;;;;;23.30;22.10;;;14.70;85.60;;;;;;5076464;28;20505;-72
2021/10/04 02:43:20;;;;;;;22.93;21.73;;;14.70;86.10;;;;;;5081689;28;20477;-72
2021/10/04 02:45:47;;;;;;;23.10;21.90;;;14.60;86.00;;;;;;5072979;28;20474;-72
2021/10/04 02:48:17;;;;;;;23.13;21.93;;;14.50;86.20;;;;;;5072192;28;20454;-72
2021/10/04 02:50:44;;;;;;;22.33;21.23;;;14.40;86.60;;;;;;5073006;28;20480;-72
2021/10/04 02:53:11;;;;;;;22.40;21.30;;;14.30;87.10;;;;;;5080509;28;20457;-72
2021/10/04 02:55:38;;;;;;;23.37;22.17;;;14.30;87.70;;;;;;5083944;28;20548;-72
2021/10/04 02:58:05;;;;;;;23.13;21.93;;;14.30;88.10;;;;;;5077343;28;20450;-72
2021/10/04 03:00:34;;;;;;;22.17;20.97;;;14.30;88.20;;;;;;5071517;28;20473;-72
2021/10/04 03:03:01;;;;;;;22.53;21.33;;;14.40;88.20;;;;;;5083227;28;20804;-72
2021/10/04 03:05:33;;;;;;;25.53;23.83;;;14.40;88.40;;;;;;5078613;28;20496;-71
2021/10/04 03:08:00;;;;;;;28.30;26.40;;;14.40;88.70;;;;;;5071503;28;20490;-72
2021/10/04 03:10:27;;;;;;;24.17;22.77;;;14.40;88.80;;;;;;5076323;28;20478;-72
2021/10/04 03:12:54;;;;;;;24.10;22.80;;;14.50;88.90;;;;;;5082108;28;20467;-72
2021/10/04 03:15:21;;;;;;;23.73;22.53;;;14.50;88.90;;;;;;5080714;28;20891;-72
2021/10/04 03:17:48;;;;;;;22.17;20.97;;;14.50;88.70;;;;;;5082210;28;20449;-72
2021/10/04 03:20:15;;;;;;;22.60;21.40;;;14.60;88.70;;;;;;5072236;28;20480;-71
2021/10/04 03:22:43;;;;;;;22.87;21.67;;;14.60;88.80;;;;;;5077648;28;20471;-72
2021/10/04 03:25:10;;;;;;;22.47;21.37;;;14.50;89.20;;;;;;5079323;28;20466;-72
2021/10/04 03:27:37;;;;;;;22.87;21.67;;;14.50;89.40;;;;;;5078994;28;20465;-72
2021/10/04 03:30:05;;;;;;;22.80;21.60;;;14.50;89.60;;;;;;5072835;28;20559;-72
2021/10/04 03:32:32;;;;;;;23.43;22.23;;;14.50;89.80;;;;;;5081143;28;20468;-71
2021/10/04 03:34:59;;;;;;;22.57;21.30;;;14.50;89.80;;;;;;5072799;28;20453;-72
2021/10/04 03:37:26;;;;;;;23.63;22.23;;;14.50;90.00;;;;;;5077167;28;20480;-72
2021/10/04 03:39:54;;;;;;;23.17;21.97;;;14.50;90.30;;;;;;5079954;28;20433;-72
2021/10/04 03:42:21;;;;;;;24.07;22.77;;;14.50;90.30;;;;;;5083122;28;20460;-72
2021/10/04 03:44:48;;;;;;;22.60;21.40;;;14.50;90.30;;;;;;5076211;28;20972;-72
2021/10/04 03:47:15;;;;;;;23.47;22.27;;;14.40;90.40;;;;;;5079740;28;20459;-72
2021/10/04 03:49:42;;;;;;;21.70;20.50;;;14.40;90.40;;;;;;5075094;28;20475;-72
2021/10/04 03:52:08;;;;;;;22.90;21.70;;;14.40;90.60;;;;;;5069835;28;20468;-71
2021/10/04 03:54:35;;;;;;;23.00;21.80;;;14.40;90.60;;;;;;5078162;28;20475;-72
2021/10/04 03:57:04;;;;;;;24.43;23.13;;;14.40;90.70;;;;;;5077369;28;20450;-72
2021/10/04 03:59:31;;;;;;;22.10;20.90;;;14.40;90.70;;;;;;5079310;28;20814;-72
2021/10/04 04:01:58;;;;;;;25.63;24.43;;;14.40;90.40;;;;;;5080248;28;20559;-72
2021/10/04 04:04:25;;;;;;;23.50;22.30;;;14.40;90.40;;;;;;5081620;28;20449;-72
2021/10/04 04:06:52;;;;;;;23.93;22.63;;;14.40;90.30;;;;;;5076560;28;21047;-72
2021/10/04 04:09:19;;;;;;;23.30;22.03;;;14.40;90.20;;;;;;5079743;28;20529;-72
2021/10/04 04:11:46;;;;;;;22.60;21.50;;;14.40;90.30;;;;;;5080326;28;20477;-72
2021/10/04 04:14:14;;;;;;;22.33;21.03;;;14.40;90.30;;;;;;5076164;28;20990;-72
2021/10/04 04:16:41;;;;;;;23.37;22.07;;;14.30;90.50;;;;;;5074857;28;20557;-72
2021/10/04 04:19:08;;;;;;;22.20;21.00;;;14.30;90.50;;;;;;5072044;28;20446;-72
2021/10/04 04:21:37;;;;;;;23.87;22.37;;;14.20;90.50;;;;;;5081776;28;20465;-72
2021/10/04 04:24:05;;;;;;;23.77;22.40;;;14.20;90.50;;;;;;5079576;28;20506;-72
2021/10/04 04:26:31;;;;;;;24.57;23.23;;;14.20;90.90;;;;;;5078974;28;20464;-72
2021/10/04 04:28:58;;;;;;;24.87;23.57;;;14.20;91.00;;;;;;5070275;28;20450;-72
2021/10/04 04:31:27;;;;;;;23.23;21.93;;;14.20;91.30;;;;;;5081135;28;20491;-72
2021/10/04 04:33:53;;;;;;;24.20;23.00;;;14.20;91.20;;;;;;5080925;28;20443;-72
2021/10/04 04:36:20;;;;;;;22.97;21.73;;;14.20;91.10;;;;;;5072284;28;20461;-72
2021/10/04 04:38:47;;;;;;;20.85;19.65;;;14.20;91.20;;;;;;5078497;28;20481;-70
2021/10/04 04:41:14;;;;;;;23.40;22.10;;;14.30;91.10;;;;;;5070026;28;20218;-71
2021/10/04 04:43:41;;;;;;;24.07;22.77;;;14.20;90.90;;;;;;5075435;28;20538;-72
2021/10/04 04:46:08;;;;;;;24.50;23.03;;;14.20;91.10;;;;;;5075644;28;20457;-69
2021/10/04 04:48:36;;;;;;;26.40;25.10;;;14.20;91.30;;;;;;5081722;28;20461;-72
2021/10/04 04:51:03;;;;;;;22.40;21.00;;;14.20;91.10;;;;;;5074070;28;20468;-72
2021/10/04 04:53:30;;;;;;;22.80;21.60;;;14.20;91.10;;;;;;5071905;28;20454;-72
2021/10/04 04:55:57;;;;;;;24.77;23.47;;;14.20;91.10;;;;;;5072674;28;20464;-72
2021/10/04 04:58:24;;;;;;;22.30;21.20;;;14.20;91.10;;;;;;5082031;28;20879;-71
2021/10/04 05:00:51;;;;;;;23.77;22.53;;;14.20;91.20;;;;;;5071802;28;20981;-71
2021/10/04 05:03:18;;;;;;;23.73;22.53;;;14.20;91.30;;;;;;5070489;28;20450;-70
2021/10/04 05:05:47;;;;;;;21.33;20.23;;;14.20;91.40;;;;;;5074243;28;20455;-71
2021/10/04 05:08:14;;;;;;;22.13;20.93;;;14.20;91.60;;;;;;5079776;28;20951;-71
2021/10/04 05:10:44;;;;;;;23.90;22.70;;;14.20;91.70;;;;;;5071156;28;20487;-71
2021/10/04 05:13:11;;;;;;;22.40;21.20;;;14.20;91.70;;;;;;5076190;28;20454;-71
2021/10/04 05:15:37;;;;;;;24.20;22.80;;;14.20;91.60;;;;;;5079089;28;20458;-71
2021/10/04 05:18:04;;;;;;;23.30;21.90;;;14.20;91.60;;;;;;5073339;28;20545;-74
2021/10/04 05:20:31;;;;;;;22.50;21.30;;;14.20;91.70;;;;;;5066682;28;20484;-74
2021/10/04 05:23:00;;;;;;;22.30;21.20;;;14.20;91.80;;;;;;5069861;28;20481;-72
2021/10/04 05:25:27;;;;;;;22.43;21.33;;;14.20;91.90;;;;;;5071562;28;20541;-70
2021/10/04 05:27:54;;;;;;;22.50;21.30;;;14.20;91.90;;;;;;5070734;28;20454;-72
2021/10/04 05:30:21;;;;;;;23.90;22.70;;;14.30;91.80;;;;;;5076794;28;20496;-72
2021/10/04 05:32:49;;;;;;;23.00;21.70;;;14.30;91.70;;;;;;5071509;28;21247;-72
2021/10/04 05:35:16;;;;;;;21.90;20.80;;;14.30;91.70;;;;;;5070723;28;21195;-72
2021/10/04 05:37:44;;;;;;;23.53;22.23;;;14.30;91.90;;;;;;5078743;28;20458;-72
2021/10/04 05:40:14;;;;;;;22.70;21.50;;;14.30;92.20;;;;;;5079078;28;20929;-72
2021/10/04 05:42:42;;;;;;;23.80;22.50;;;14.20;92.50;;;;;;5071644;28;20450;-72
2021/10/04 05:45:11;;;;;;;23.00;21.70;;;14.30;92.70;;;;;;5075202;28;20450;-72
2021/10/04 05:47:38;;;;;;;26.57;25.17;;;14.20;92.60;;;;;;5073731;28;20545;-72
2021/10/04 05:50:07;;;;;;;24.90;23.50;;;14.20;92.90;;;;;;5080697;28;21062;-72
2021/10/04 05:52:34;;;;;;;23.00;21.70;;;14.20;93.00;;;;;;5070950;28;20550;-72
2021/10/04 05:55:01;;;;;;;20.50;19.45;;;14.20;93.00;;;;;;5081243;28;20510;-72
2021/10/04 05:57:29;;;;;;;23.73;22.30;;;14.40;92.40;;;;;;5073307;28;20329;-73
2021/10/04 05:59:56;;;;;;;25.00;23.70;;;14.30;91.90;;;;;;5073231;28;20477;-75
2021/10/04 06:02:23;;;;;;;23.27;22.07;;;14.10;91.80;;;;;;5068662;28;20468;-76
2021/10/04 06:04:50;;;;;;;25.43;23.67;;;13.90;92.80;;;;;;5075175;28;20465;-75
2021/10/04 06:07:17;;;;;;;25.23;23.83;;;13.80;93.60;;;;;;5082189;28;20477;-74
2021/10/04 06:09:44;;;;;;;24.13;22.90;;;13.80;94.00;;;;;;5082009;28;20506;-75
2021/10/04 06:12:14;;;;;;;23.10;21.80;;;13.90;93.90;;;;;;5070775;28;20463;-76
2021/10/04 06:14:44;;;;;;;24.00;22.60;;;14.00;94.00;;;;;;5085434;28;20453;-74
2021/10/04 06:17:11;;;;;;;23.87;22.57;;;14.00;93.80;;;;;;5078968;28;20793;-74
2021/10/04 06:19:38;;;;;;;22.97;21.97;;;14.10;93.60;;;;;;5078902;28;20545;-74
2021/10/04 06:22:08;;;;;;;23.63;22.33;;;14.00;93.50;;;;;;5073692;28;21039;-74
2021/10/04 06:24:34;;;;;;;22.73;21.53;;;14.10;94.80;;;;;;5078509;28;20461;-74
2021/10/04 06:27:02;;;;;;;23.63;22.43;;;14.10;94.60;;;;;;5074662;28;20450;-73
2021/10/04 06:29:33;;;;;;;21.67;20.37;;;14.10;93.90;;;;;;5077605;28;20458;-73
2021/10/04 06:32:01;;;;;;;22.67;21.57;;;14.20;94.20;;;;;;5086084;28;21072;-73
2021/10/04 06:34:28;;;;;;;22.40;21.30;;;14.20;93.10;;;;;;5083386;28;20453;-74
2021/10/04 06:36:55;;;;;;;21.50;20.33;;;14.30;92.40;;;;;;5081461;28;20592;-74
2021/10/04 06:39:22;;;;;;;21.00;19.97;;;14.30;91.90;;;;;;5079231;28;20541;-75
2021/10/04 06:41:49;;;;;;;22.33;21.00;;;14.20;91.80;;;;;;5075574;28;20499;-74
2021/10/04 06:44:16;;;;;;;22.00;20.70;;;14.30;91.80;;;;;;5073986;28;20911;-73
2021/10/04 06:46:43;;;;;;;23.97;22.67;;;14.30;91.50;;;;;;5074798;28;21018;-74
2021/10/04 06:49:12;;;;;;;25.73;24.27;;;14.30;91.50;;;;;;5073339;28;20456;-74
2021/10/04 06:51:39;;;;;;;23.00;21.37;;;14.30;91.60;;;;;;5077698;28;20482;-75
2021/10/04 06:54:06;;;;;;;21.63;20.43;;;14.30;91.90;;;;;;5084237;28;20453;-75
2021/10/04 06:56:33;;;;;;;23.87;22.77;;;14.20;91.90;;;;;;5074533;28;20462;-75
2021/10/04 06:58:59;;;;;;;21.80;20.70;;;14.30;92.30;;;;;;5076000;28;20461;-75
2021/10/04 07:01:27;;;;;;;23.30;22.10;;;14.30;91.80;;;;;;5077575;28;20468;-74
2021/10/04 07:03:54;;;;;;;23.63;22.33;;;14.40;91.50;;;;;;5073176;28;20540;-75
2021/10/04 07:06:22;;;;;;;22.63;21.23;;;14.40;91.70;;;;;;5073682;28;20464;-74
2021/10/04 07:08:49;;;;;;;22.53;21.30;;;14.50;91.60;;;;;;5071769;28;20472;-74
2021/10/04 07:11:16;;;;;;;23.20;21.90;;;14.60;91.50;;;;;;5072217;28;20494;-74
2021/10/04 07:13:43;;;;;;;22.17;21.00;;;14.60;91.20;;;;;;5075928;28;20462;-75
2021/10/04 07:16:12;;;;;;;22.50;21.20;;;14.60;91.00;;;;;;5077848;28;20485;-75
2021/10/04 07:18:41;;;;;;;22.47;21.27;;;14.60;90.70;;;;;;5083245;28;20460;-74
2021/10/04 07:21:08;;;;;;;23.83;22.60;;;14.70;90.10;;;;;;5074230;28;20469;-74
2021/10/04 07:23:37;;;;;;;23.53;22.33;;;14.70;89.90;;;;;;5078211;28;20544;-72
2021/10/04 07:26:04;;;;;;;23.50;22.20;;;14.80;89.80;;;;;;5078968;28;20482;-72
2021/10/04 07:28:31;;;;;;;22.87;21.60;;;14.80;89.70;;;;;;5076570;28;20519;-73
2021/10/04 07:30:59;;;;;;;23.60;22.20;;;14.90;89.10;;;;;;5076948;28;20613;-71
2021/10/04 07:33:26;;;;;;;25.47;24.07;;;14.90;88.40;;;;;;5071644;28;20468;-72
2021/10/04 07:35:55;;;;;;;24.07;22.77;;;14.70;89.60;;;;;;5072532;28;20446;-72
2021/10/04 07:38:22;;;;;;;24.80;23.13;;;14.60;90.40;;;;;;5078490;28;20959;-73
2021/10/04 07:40:51;;;;;;;24.90;23.60;;;14.60;90.00;;;;;;5072045;28;20478;-71
2021/10/04 07:43:18;;;;;;;25.00;23.60;;;14.60;89.50;;;;;;5076082;28;20850;-72
2021/10/04 07:45:45;;;;;;;23.40;22.20;;;14.50;89.50;;;;;;5074690;28;20463;-72
2021/10/04 07:48:12;;;;;;;23.43;22.23;;;14.50;90.00;;;;;;5073130;28;20446;-72
2021/10/04 07:50:39;;;;;;;24.10;22.80;;;14.40;89.20;;;;;;5080662;28;20481;-72
2021/10/04 07:53:06;;;;;;;24.70;23.40;;;14.40;90.10;;;;;;5076160;28;20864;-72
2021/10/04 07:55:33;;;;;;;22.83;21.63;;;14.50;89.80;;;;;;5072418;28;20547;-72
2021/10/04 07:58:01;;;;;;;24.00;22.80;;;14.60;89.90;;;;;;5071942;28;20202;-72
2021/10/04 08:00:44;;;;;;;24.80;23.40;;;14.50;89.80;;;;;;5073039;28;20492;-73
2021/10/04 08:03:10;;;;;;;24.63;23.40;;;14.30;91.10;;;;;;5076829;28;20537;-75
2021/10/04 08:05:37;;;;;;;24.83;23.53;;;14.40;91.30;;;;;;5082150;28;20522;-73
2021/10/04 08:08:05;;;;;;;22.90;21.60;;;14.30;91.00;;;;;;5081823;28;20445;-73
2021/10/04 08:10:32;;;;;;;24.60;23.30;;;14.10;91.10;;;;;;5074558;28;20473;-73
2021/10/04 08:13:01;;;;;;;23.07;21.77;;;14.00;92.00;;;;;;5071477;28;20461;-74
2021/10/04 08:15:28;;;;;;;22.30;21.00;;;14.20;92.20;;;;;;5082255;28;20454;-73
2021/10/04 08:17:55;;;;;;;22.23;20.90;;;14.40;91.50;;;;;;5073425;28;20460;-73
2021/10/04 08:20:22;;;;;;;23.50;22.30;;;14.50;90.80;;;;;;5072148;28;20469;-73
2021/10/04 08:22:51;;;;;;;23.17;21.60;;;14.60;90.30;;;;;;5071033;28;20461;-74
2021/10/04 08:25:19;;;;;;;21.57;20.47;;;14.60;90.40;;;;;;5079877;28;20461;-73
2021/10/04 08:27:46;;;;;;;22.10;21.00;;;14.80;89.60;;;;;;5080759;28;20996;-73
2021/10/04 08:30:15;;;;;;;23.00;21.70;;;14.80;89.70;;;;;;5072442;28;20482;-73
2021/10/04 08:32:42;;;;;;;23.00;21.60;;;14.90;90.00;;;;;;5073540;28;20993;-74
2021/10/04 08:35:10;;;;;;;24.43;23.13;;;15.00;89.40;;;;;;5075650;28;20797;-74
2021/10/04 08:37:37;;;;;;;22.50;21.30;;;14.80;88.50;;;;;;5075191;28;20965;-73
2021/10/04 08:40:06;;;;;;;25.27;23.97;;;14.60;89.80;;;;;;5075012;28;20991;-73
2021/10/04 08:42:33;;;;;;;20.70;19.60;;;14.70;89.60;;;;;;5073600;28;20446;-74
2021/10/04 08:45:01;;;;;;;22.57;21.47;;;14.70;88.10;;;;;;5074386;28;20476;-73
2021/10/04 08:47:30;;;;;;;22.80;21.60;;;14.50;89.00;;;;;;5077626;28;20456;-75
2021/10/04 08:49:58;;;;;;;22.80;21.67;;;14.40;89.90;;;;;;5081955;28;21087;-74
2021/10/04 08:52:25;;;;;;;23.13;21.93;;;14.50;89.80;;;;;;5075434;28;20481;-73
2021/10/04 08:54:51;;;;;;;23.10;21.80;;;14.60;88.80;;;;;;5075931;28;20823;-73
2021/10/04 08:57:18;;;;;;;22.40;21.30;;;14.60;88.80;;;;;;5077358;28;20815;-73
2021/10/04 08:59:45;;;;;;;22.53;21.43;;;14.60;87.60;;;;;;5079808;28;20968;-73
2021/10/04 09:02:23;;;;;;;22.50;21.40;;;14.70;87.80;;;;;;5069631;28;20454;-73
2021/10/04 09:05:07;;;;;;;24.20;23.00;;;14.70;88.00;;;;;;5080809;28;20511;-73
2021/10/04 09:07:45;;;;;;;25.80;24.20;;;14.70;88.90;;;;;;5070292;28;20454;-73
2021/10/04 09:10:14;;;;;;;23.10;21.80;;;14.90;88.60;;;;;;5069417;28;20572;-74
2021/10/04 09:12:50;;;;;;;22.43;21.33;;;15.00;87.90;;;;;;5074088;28;20840;-77
2021/10/04 09:15:27;;;;;;;24.43;22.93;;;15.10;86.00;;;;;;5068335;28;20497;-74
2021/10/04 09:17:55;;;;;;;22.47;21.37;;;15.00;86.70;;;;;;5077177;28;20536;-74
2021/10/04 09:20:25;;;;;;;22.47;21.37;;;15.00;86.70;;;;;;5066919;28;20477;-76
2021/10/04 09:22:52;;;;;;;23.23;21.87;;;14.90;87.00;;;;;;5072533;28;20457;-76
2021/10/04 09:25:19;;;;;;;24.07;22.83;;;14.90;87.60;;;;;;5070063;28;20543;-75
2021/10/04 09:27:48;;;;;;;22.93;21.70;;;14.80;87.80;;;;;;5072060;28;20458;-75
2021/10/04 09:30:17;;;;;;;24.70;23.40;;;14.90;87.80;;;;;;5070190;28;20469;-76
2021/10/04 09:32:46;;;;;;;25.20;23.90;;;15.10;87.60;;;;;;5074487;28;20558;-74
2021/10/04 09:35:23;;;;;;;24.80;23.60;;;15.20;87.20;;;;;;5073863;28;20557;-74
2021/10/04 09:38:14;;;;;;;24.13;22.83;;;15.40;86.40;;;;;;5075822;28;20819;-74
2021/10/04 09:40:43;;;;;;;24.23;22.57;;;15.60;85.40;;;;;;5070147;28;20480;-74
2021/10/04 09:43:22;;;;;;;23.83;22.63;;;15.60;84.50;;;;;;5071069;28;20460;-75
2021/10/04 09:45:59;;;;;;;24.07;22.57;;;15.60;84.60;;;;;;5075511;28;20454;-74
2021/10/04 09:48:26;;;;;;;26.10;24.33;;;15.50;85.00;;;;;;5077815;28;20838;-74
2021/10/04 09:50:55;;;;;;;26.50;24.90;;;15.60;85.30;;;;;;5076504;28;20975;-75
2021/10/04 09:53:23;;;;;;;24.73;23.10;;;15.70;85.30;;;;;;5081217;28;20464;-75
2021/10/04 09:55:50;;;;;;;24.33;22.93;;;15.70;86.50;;;;;;5078660;28;20493;-75
2021/10/04 09:58:19;;;;;;;25.17;23.90;;;15.80;86.00;;;;;;5083746;28;20457;-74
2021/10/04 10:00:52;;;;;;;28.10;26.90;;;15.90;86.00;;;;;;5084534;28;20485;-74
2021/10/04 10:03:21;;;;;;;23.97;22.67;;;15.90;84.70;;;;;;5073520;28;20575;-74
2021/10/04 10:05:52;;;;;;;23.97;22.77;;;16.10;84.00;;;;;;5085433;28;20557;-74
2021/10/04 10:08:23;;;;;;;23.53;22.33;;;16.20;83.10;;;;;;5072794;28;20470;-74
2021/10/04 10:10:52;;;;;;;25.43;23.93;;;16.30;83.10;;;;;;5082146;28;20558;-74
2021/10/04 10:13:21;;;;;;;24.93;23.30;;;16.30;82.40;;;;;;5080422;28;21102;-74
2021/10/04 10:15:56;;;;;;;22.57;21.37;;;16.60;81.90;;;;;;5079476;28;20458;-74
2021/10/04 10:18:26;;;;;;;23.00;21.97;;;16.70;79.70;;;;;;5072272;28;20877;-74
2021/10/04 10:20:59;;;;;;;23.90;22.70;;;16.70;79.40;;;;;;5077186;28;20484;-75
2021/10/04 10:23:48;;;;;;;22.70;21.60;;;16.80;80.00;;;;;;5085380;28;20980;-74
2021/10/04 10:26:30;;;;;;;23.20;22.00;;;16.90;79.30;;;;;;5084976;28;20533;-75
2021/10/04 10:29:21;;;;;;;23.67;22.47;;;17.00;77.80;;;;;;5072426;28;20458;-75
2021/10/04 10:32:18;;;;;;;27.97;25.87;;;17.10;78.00;;;;;;5077833;28;20477;-75
2021/10/04 10:34:47;;;;;;;27.10;25.03;;;17.30;78.20;;;;;;5077595;28;20496;-75
2021/10/04 10:37:16;;;;;;;23.90;22.70;;;17.40;78.40;;;;;;5080746;28;20535;-75
2021/10/04 10:39:47;;;;;;;25.33;24.03;;;17.20;76.40;;;;;;5079783;28;20453;-76
2021/10/04 10:42:16;;;;;;;23.30;22.20;;;17.30;77.20;;;;;;5080332;28;20518;-80
2021/10/04 10:45:12;;;;;;;25.03;23.67;;;17.30;75.60;;;;;;5077805;28;20961;-77
2021/10/04 10:47:54;;;;;;;26.57;24.80;;;17.40;76.20;;;;;;5077908;28;20456;-74
2021/10/04 10:50:47;;;;;;;24.17;22.97;;;17.60;75.40;;;;;;5076357;28;20967;-75
2021/10/04 10:53:29;;;;;;;26.30;24.80;;;17.80;74.60;;;;;;5081651;28;20519;-76
2021/10/04 10:56:00;;;;;;;26.60;25.10;;;17.90;76.80;;;;;;5075006;28;20839;-76
2021/10/04 10:58:29;;;;;;;24.90;23.60;;;17.90;77.50;;;;;;5082101;28;20462;-76
2021/10/04 11:01:13;;;;;;;25.80;24.30;;;17.90;77.90;;;;;;5076643;28;20484;-76
2021/10/04 11:03:48;;;;;;;25.67;24.17;;;17.90;78.10;;;;;;5080747;28;20942;-74
2021/10/04 11:06:16;;;;;;;27.60;26.00;;;17.70;77.80;;;;;;5078798;28;20823;-79
2021/10/04 11:08:58;;;;;;;23.30;21.67;;;17.70;78.90;;;;;;5070836;28;21182;-75
2021/10/04 11:11:28;;;;;;;23.47;22.10;;;17.80;78.60;;;;;;5071346;28;20819;-75
2021/10/04 11:14:15;;;;;;;24.57;23.27;;;17.80;78.50;;;;;;5071621;28;21104;-75
2021/10/04 11:16:56;;;;;;;24.97;23.57;;;17.80;76.50;;;;;;5068621;28;20472;-74
2021/10/04 11:19:26;;;;;;;25.40;24.00;;;17.90;75.80;;;;;;5080753;28;20460;-74
2021/10/04 11:21:53;;;;;;;25.00;23.43;;;17.90;76.40;;;;;;5071407;28;20473;-75
2021/10/04 11:24:22;;;;;;;29.87;27.77;;;18.10;76.80;;;;;;5078701;28;20483;-75
2021/10/04 11:26:51;;;;;;;27.40;25.80;;;18.20;76.20;;;;;;5072660;28;21064;-76
2021/10/04 11:29:21;;;;;;;28.90;27.07;;;18.30;76.40;;;;;;5077544;28;20811;-75
2021/10/04 11:31:49;;;;;;;25.63;24.13;;;18.30;75.60;;;;;;5082238;28;20534;-76
2021/10/04 11:34:18;;;;;;;26.60;25.10;;;18.40;75.60;;;;;;5072833;28;20461;-76
2021/10/04 11:36:47;;;;;;;26.20;24.70;;;18.50;75.40;;;;;;5080341;28;20468;-76
2021/10/04 11:39:16;;;;;;;25.30;24.00;;;18.50;73.90;;;;;;5075837;28;20455;-75
2021/10/04 11:41:45;;;;;;;25.20;23.80;;;18.50;73.10;;;;;;5078622;28;21045;-77
2021/10/04 11:44:16;;;;;;;24.30;23.10;;;18.40;73.00;;;;;;5073653;28;20457;-76
2021/10/04 11:46:47;;;;;;;24.77;23.47;;;18.50;71.80;;;;;;5074719;28;20457;-75
2021/10/04 11:49:15;;;;;;;24.27;22.97;;;18.40;72.40;;;;;;5075727;28;20455;-76
2021/10/04 11:51:48;;;;;;;27.83;26.53;;;18.20;72.90;;;;;;5069281;28;20995;-75
2021/10/04 11:54:31;;;;;;;24.23;22.83;;;18.20;74.40;;;;;;5073305;28;20916;-77
2021/10/04 11:56:58;;;;;;;26.00;24.13;;;18.30;74.50;;;;;;5070292;28;20454;-77
2021/10/04 11:59:27;;;;;;;25.73;23.80;;;18.30;75.40;;;;;;5073884;28;20454;-77
2021/10/04 12:01:55;;;;;;;25.10;23.43;;;18.50;75.20;;;;;;5076693;28;20474;-76
2021/10/04 12:04:25;;;;;;;25.93;24.53;;;18.50;74.40;;;;;;5071014;28;20465;-78
2021/10/04 12:06:52;;;;;;;24.10;22.90;;;18.60;74.90;;;;;;5066724;28;20496;-78
2021/10/04 12:09:22;;;;;;;26.27;24.80;;;18.70;73.50;;;;;;5074331;28;20463;-78
2021/10/04 12:11:51;;;;;;;26.50;24.60;;;18.70;74.10;;;;;;5077507;28;20966;-76
2021/10/04 12:14:19;;;;;;;25.30;24.00;;;18.70;74.10;;;;;;5074078;28;20485;-76
2021/10/04 12:16:49;;;;;;;25.30;23.90;;;18.60;73.00;;;;;;5063440;28;20519;-77
2021/10/04 12:19:16;;;;;;;25.70;24.30;;;18.60;72.80;;;;;;5074297;28;20561;-76
2021/10/04 12:21:46;;;;;;;25.73;24.33;;;18.60;71.90;;;;;;5070209;28;20549;-76
2021/10/04 12:24:18;;;;;;;26.23;24.30;;;18.40;73.20;;;;;;5075204;28;21150;-76
2021/10/04 12:26:51;;;;;;;26.33;24.10;;;18.30;73.40;;;;;;5070983;28;20533;-75
2021/10/04 12:29:46;;;;;;;26.70;25.30;;;18.40;74.20;;;;;;5069959;28;21185;-76
2021/10/04 12:32:20;;;;;;;32.03;30.03;;;18.40;74.50;;;;;;5036424;28;20470;-75
2021/10/04 12:35:15;;;;;;;31.67;29.57;;;18.30;74.60;;;;;;5069758;28;20452;-77
2021/10/04 12:37:47;;;;;;;28.00;26.50;;;18.30;75.60;;;;;;5065310;28;21302;-77